createdAt,value
2019-03-31T00:01:45.131Z,99880.08
2019-03-31T00:04:19.716Z,99881.16
2019-03-31T00:06:53.793Z,99881.58
2019-03-31T00:09:28.522Z,99875.38
2019-03-31T00:12:02.967Z,99875.64
2019-03-31T00:14:37.447Z,99876.78
2019-03-31T00:17:11.987Z,99876.71
2019-03-31T00:19:46.146Z,99874.83
2019-03-31T00:22:20.232Z,99872.64
2019-03-31T00:24:53.901Z,99871.30
2019-03-31T00:27:28.984Z,99869.47
2019-03-31T00:30:04.430Z,99866.36
2019-03-31T00:32:39.071Z,99862.50
2019-03-31T00:35:14.086Z,99866.06
2019-03-31T00:37:49.215Z,99864.24
2019-03-31T00:40:24.234Z,99864.39
2019-03-31T00:42:58.713Z,99863.78
2019-03-31T00:45:33.483Z,99861.02
2019-03-31T00:48:08.670Z,99858.67
2019-03-31T00:50:42.603Z,99865.33
2019-03-31T00:53:17.690Z,99862.73
2019-03-31T00:55:51.789Z,99860.64
2019-03-31T00:58:26.384Z,99856.78
2019-03-31T01:01:35.419Z,99860.70
2019-03-31T01:03:58.414Z,99857.75
2019-03-31T01:06:34.990Z,99856.66
2019-03-31T01:09:26.690Z,99856.56
2019-03-31T01:12:01.701Z,99858.13
2019-03-31T01:14:36.588Z,99853.95
2019-03-31T01:17:12.127Z,99855.39
2019-03-31T01:19:47.087Z,99856.39
2019-03-31T01:22:21.709Z,99852.20
2019-03-31T01:24:55.790Z,99852.70
2019-03-31T01:27:30.433Z,99850.38
2019-03-31T01:30:04.954Z,99846.20
2019-03-31T01:32:39.478Z,99849.20
2019-03-31T01:35:13.968Z,99844.03
2019-03-31T01:37:47.999Z,99846.53
2019-03-31T01:40:23.281Z,99845.80
2019-03-31T01:42:58.290Z,99844.53
2019-03-31T01:45:31.963Z,99841.03
2019-03-31T01:48:07.101Z,99843.10
2019-03-31T01:50:41.240Z,99843.91
2019-03-31T01:53:15.688Z,99842.16
2019-03-31T01:55:50.723Z,99841.06
2019-03-31T01:58:25.240Z,99835.97
2019-03-31T02:01:02.006Z,99836.77
2019-03-31T02:03:36.509Z,99833.17
2019-03-31T02:06:11.341Z,99837.11
2019-03-31T02:08:45.556Z,99832.60
2019-03-31T02:11:20.013Z,99828.59
2019-03-31T02:13:54.502Z,99828.43
2019-03-31T02:16:28.679Z,99829.77
2019-03-31T02:19:03.888Z,99821.59
2019-03-31T02:21:38.367Z,99825.34
2019-03-31T02:24:13.095Z,99826.41
2019-03-31T02:26:48.453Z,99824.55
2019-03-31T02:29:22.988Z,99822.58
2019-03-31T02:31:57.635Z,99827.58
2019-03-31T02:34:32.126Z,99822.55
2019-03-31T02:37:07.164Z,99824.39
2019-03-31T02:39:42.128Z,99823.27
2019-03-31T02:42:16.210Z,99821.17
2019-03-31T02:44:50.739Z,99826.41
2019-03-31T02:47:25.456Z,99826.91
2019-03-31T02:49:59.965Z,99824.05
2019-03-31T02:52:34.095Z,99823.62
2019-03-31T02:55:09.436Z,99821.13
2019-03-31T02:57:44.480Z,99819.27
2019-03-31T03:00:19.108Z,99820.83
2019-03-31T03:02:54.800Z,99820.57
2019-03-31T03:05:31.885Z,99815.38
2019-03-31T03:08:06.662Z,99815.92
2019-03-31T03:10:40.983Z,99817.92
2019-03-31T03:13:16.727Z,99811.89
2019-03-31T03:16:24.056Z,99815.47
2019-03-31T03:18:58.671Z,99816.64
2019-03-31T03:21:33.371Z,99819.81
2019-03-31T03:24:08.500Z,99814.28
2019-03-31T03:26:43.328Z,99812.52
2019-03-31T03:29:18.266Z,99815.59
2019-03-31T03:31:53.324Z,99818.31
2019-03-31T03:34:27.421Z,99820.72
2019-03-31T03:37:02.440Z,99815.69
2019-03-31T03:39:37.403Z,99814.42
2019-03-31T03:42:11.643Z,99813.42
2019-03-31T03:44:46.135Z,99812.83
2019-03-31T03:47:20.794Z,99810.45
2019-03-31T03:49:54.915Z,99811.02
2019-03-31T03:52:30.022Z,99812.02
2019-03-31T03:55:04.185Z,99809.98
2019-03-31T03:57:38.370Z,99809.80
2019-03-31T04:00:13.386Z,99808.63
2019-03-31T04:02:47.896Z,99809.09
2019-03-31T04:05:21.556Z,99813.59
2019-03-31T04:07:56.010Z,99810.09
2019-03-31T04:11:28.514Z,99815.48
2019-03-31T04:14:03.371Z,99817.18
2019-03-31T04:16:37.529Z,99812.84
2019-03-31T04:19:11.977Z,99810.75
2019-03-31T04:21:46.791Z,99810.31
2019-03-31T04:24:21.784Z,99809.64
2019-03-31T04:26:56.602Z,99816.14
2019-03-31T04:29:31.390Z,99809.81
2019-03-31T04:32:05.831Z,99815.44
2019-03-31T04:34:40.964Z,99815.23
2019-03-31T04:37:15.592Z,99817.13
2019-03-31T04:39:50.033Z,99815.30
2019-03-31T04:42:24.969Z,99824.84
2019-03-31T04:44:59.470Z,99821.48
2019-03-31T04:47:34.212Z,99823.08
2019-03-31T04:50:08.540Z,99821.04
2019-03-31T04:52:42.989Z,99821.77
2019-03-31T04:55:17.661Z,99816.61
2019-03-31T04:57:52.101Z,99823.27
2019-03-31T05:00:27.222Z,99820.56
2019-03-31T05:03:02.356Z,99820.33
2019-03-31T05:05:37.421Z,99828.39
2019-03-31T05:08:12.838Z,99827.43
2019-03-31T05:10:47.161Z,99824.00
2019-03-31T05:13:20.752Z,99828.53
2019-03-31T05:15:55.387Z,99829.47
2019-03-31T05:18:29.896Z,99831.91
2019-03-31T05:21:04.160Z,99832.55
2019-03-31T05:23:38.498Z,99833.19
2019-03-31T05:26:12.689Z,99827.86
2019-03-31T05:28:47.721Z,99831.00
2019-03-31T05:31:22.245Z,99830.44
2019-03-31T05:33:56.765Z,99834.41
2019-03-31T05:36:31.490Z,99831.61
2019-03-31T05:39:07.731Z,99835.41
2019-03-31T05:41:42.260Z,99836.34
2019-03-31T05:44:16.868Z,99833.15
2019-03-31T05:46:50.913Z,99832.98
2019-03-31T05:49:25.833Z,99840.37
2019-03-31T05:52:01.175Z,99834.57
2019-03-31T05:54:36.206Z,99832.97
2019-03-31T05:57:10.699Z,99827.83
2019-03-31T05:59:44.847Z,99828.67
2019-03-31T06:02:18.955Z,99830.63
2019-03-31T06:04:53.062Z,99832.60
2019-03-31T06:07:27.177Z,99835.52
2019-03-31T06:10:02.094Z,99838.20
2019-03-31T06:12:37.257Z,99832.16
2019-03-31T06:15:11.645Z,99832.05
2019-03-31T06:17:46.289Z,99835.41
2019-03-31T06:20:21.335Z,99833.41
2019-03-31T06:22:55.958Z,99833.02
2019-03-31T06:25:31.739Z,99828.47
2019-03-31T06:28:06.236Z,99833.17
2019-03-31T06:30:41.367Z,99828.25
2019-03-31T06:33:16.301Z,99833.03
2019-03-31T06:35:51.521Z,99836.22
2019-03-31T06:38:25.749Z,99842.34
2019-03-31T06:40:59.769Z,99843.76
2019-03-31T06:43:34.730Z,99846.55
2019-03-31T06:46:09.126Z,99851.82
2019-03-31T06:48:43.642Z,99850.14
2019-03-31T06:51:18.284Z,99857.25
2019-03-31T06:53:52.858Z,99857.02
2019-03-31T06:56:27.304Z,99856.09
2019-03-31T06:59:02.395Z,99860.84
2019-03-31T07:01:37.525Z,99863.43
2019-03-31T07:04:12.553Z,99863.18
2019-03-31T07:06:47.675Z,99863.16
2019-03-31T07:09:22.293Z,99856.50
2019-03-31T07:11:56.716Z,99861.08
2019-03-31T07:14:31.581Z,99855.70
2019-03-31T07:17:06.112Z,99854.34
2019-03-31T07:19:40.591Z,99851.97
2019-03-31T07:22:14.320Z,99855.53
2019-03-31T07:24:48.703Z,99847.88
2019-03-31T07:27:22.961Z,99843.38
2019-03-31T07:29:57.846Z,99846.09
2019-03-31T07:32:32.880Z,99840.67
2019-03-31T07:35:17.870Z,99842.95
2019-03-31T07:37:47.397Z,99833.68
2019-03-31T07:40:19.146Z,99837.61
2019-03-31T07:42:54.287Z,99830.20
2019-03-31T07:45:29.964Z,99835.04
2019-03-31T07:48:03.887Z,99826.36
2019-03-31T07:50:38.154Z,99826.02
2019-03-31T07:53:12.568Z,99821.89
2019-03-31T07:55:47.092Z,99830.03
2019-03-31T07:58:21.780Z,99832.84
2019-03-31T08:00:57.351Z,99839.23
2019-03-31T08:03:32.022Z,99837.47
2019-03-31T08:06:07.186Z,99840.95
2019-03-31T08:08:42.311Z,99840.42
2019-03-31T08:11:17.175Z,99843.66
2019-03-31T08:13:55.090Z,99846.36
2019-03-31T08:16:27.419Z,99849.13
2019-03-31T08:19:02.288Z,99849.13
2019-03-31T08:21:35.914Z,99851.48
2019-03-31T08:24:11.239Z,99849.52
2019-03-31T08:26:46.166Z,99843.48
2019-03-31T08:29:21.331Z,99849.81
2019-03-31T08:31:56.236Z,99855.83
2019-03-31T08:34:31.273Z,99853.22
2019-03-31T08:37:05.409Z,99842.38
2019-03-31T08:39:40.449Z,99838.98
2019-03-31T08:42:15.437Z,99837.01
2019-03-31T08:44:50.296Z,99835.78
2019-03-31T08:47:27.258Z,99845.52
2019-03-31T08:50:02.828Z,99852.73
2019-03-31T08:52:38.098Z,99846.52
2019-03-31T08:55:13.410Z,99849.61
2019-03-31T08:57:48.025Z,99852.40
2019-03-31T09:00:33.977Z,99859.19
2019-03-31T09:03:09.539Z,99855.52
2019-03-31T09:05:44.622Z,99857.64
2019-03-31T09:08:20.889Z,99846.80
2019-03-31T09:10:55.432Z,99850.89
2019-03-31T09:13:30.547Z,99852.57
2019-03-31T09:16:05.037Z,99853.49
2019-03-31T09:18:39.999Z,99846.88
2019-03-31T09:21:15.068Z,99850.36
2019-03-31T09:23:50.512Z,99842.94
2019-03-31T09:26:24.927Z,99848.03
2019-03-31T09:28:59.311Z,99848.14
2019-03-31T09:31:34.068Z,99847.59
2019-03-31T09:34:09.414Z,99854.57
2019-03-31T09:36:43.842Z,99853.97
2019-03-31T09:39:18.523Z,99841.76
2019-03-31T09:41:53.217Z,99849.19
2019-03-31T09:44:30.273Z,99847.45
2019-03-31T09:47:04.114Z,99849.77
2019-03-31T09:49:39.174Z,99852.67
2019-03-31T09:52:13.803Z,99849.88
2019-03-31T09:54:48.459Z,99853.94
2019-03-31T09:57:23.464Z,99867.12
2019-03-31T09:59:57.606Z,99862.30
2019-03-31T10:02:31.235Z,99854.69
2019-03-31T10:05:04.684Z,99858.09
2019-03-31T10:07:42.607Z,99847.80
2019-03-31T10:10:33.903Z,99856.67
2019-03-31T10:13:08.651Z,99850.88
2019-03-31T10:15:43.704Z,99842.20
2019-03-31T10:18:18.567Z,99833.51
2019-03-31T10:20:53.361Z,99833.91
2019-03-31T10:23:26.707Z,99831.73
2019-03-31T10:26:01.129Z,99832.96
2019-03-31T10:28:35.295Z,99838.64
2019-03-31T10:31:09.530Z,99826.83
2019-03-31T10:33:43.634Z,99825.82
2019-03-31T10:36:18.229Z,99832.59
2019-03-31T10:38:53.166Z,99830.09
2019-03-31T10:41:29.496Z,99826.56
2019-03-31T10:44:01.665Z,99822.13
2019-03-31T10:46:35.395Z,99823.66
2019-03-31T10:49:10.871Z,99829.96
2019-03-31T10:51:44.271Z,99833.84
2019-03-31T10:54:18.490Z,99829.61
2019-03-31T10:56:52.960Z,99842.81
2019-03-31T10:59:27.314Z,99839.92
2019-03-31T11:02:01.660Z,99847.97
2019-03-31T11:04:35.010Z,99848.73
2019-03-31T11:07:09.107Z,99849.74
2019-03-31T11:09:42.709Z,99859.13
2019-03-31T11:12:16.012Z,99843.03
2019-03-31T11:14:59.130Z,99855.65
2019-03-31T11:17:32.916Z,99835.98
2019-03-31T11:20:08.015Z,99854.84
2019-03-31T11:22:50.510Z,99844.03
2019-03-31T11:25:28.935Z,99846.09
2019-03-31T11:27:58.619Z,99839.02
2019-03-31T11:30:31.840Z,99847.84
2019-03-31T11:33:07.505Z,99839.45
2019-03-31T11:35:40.038Z,99840.87
2019-03-31T11:38:12.902Z,99837.86
2019-03-31T11:40:48.688Z,99837.44
2019-03-31T11:43:22.525Z,99837.84
2019-03-31T11:45:57.511Z,99836.42
2019-03-31T11:48:31.243Z,99838.80
2019-03-31T11:51:04.975Z,99839.50
2019-03-31T11:53:39.281Z,99831.02
2019-03-31T11:56:12.543Z,99824.70
2019-03-31T11:58:46.467Z,99832.65
2019-03-31T12:01:19.782Z,99831.56
2019-03-31T12:03:54.704Z,99831.14
2019-03-31T12:06:28.918Z,99824.88
2019-03-31T12:09:02.243Z,99822.45
2019-03-31T12:11:36.619Z,99824.84
2019-03-31T12:14:10.968Z,99813.25
2019-03-31T12:16:44.123Z,99810.05
2019-03-31T12:19:17.593Z,99807.55
2019-03-31T12:21:52.437Z,99799.17
2019-03-31T12:24:26.174Z,99809.33
2019-03-31T12:27:01.212Z,99801.34
2019-03-31T12:29:36.029Z,99807.25
2019-03-31T12:32:10.726Z,99807.00
2019-03-31T12:34:45.419Z,99788.93
2019-03-31T12:37:20.824Z,99792.58
2019-03-31T12:39:55.772Z,99787.66
2019-03-31T12:42:30.604Z,99790.20
2019-03-31T12:45:05.586Z,99781.73
2019-03-31T12:47:40.148Z,99790.78
2019-03-31T12:50:14.258Z,99787.78
2019-03-31T12:52:51.123Z,99784.53
2019-03-31T12:55:25.997Z,99794.14
2019-03-31T12:58:00.934Z,99795.52
2019-03-31T13:00:34.564Z,99791.69
2019-03-31T13:03:08.746Z,99792.59
2019-03-31T13:05:43.440Z,99805.23
2019-03-31T13:08:17.965Z,99793.94
2019-03-31T13:10:52.799Z,99801.09
2019-03-31T13:13:27.864Z,99803.30
2019-03-31T13:16:02.461Z,99809.45
2019-03-31T13:18:36.984Z,99801.48
2019-03-31T13:21:11.389Z,99804.64
2019-03-31T13:23:45.927Z,99801.21
2019-03-31T13:26:20.848Z,99812.98
2019-03-31T13:28:55.603Z,99802.20
2019-03-31T13:31:30.529Z,99800.12
2019-03-31T13:34:04.808Z,99798.16
2019-03-31T13:36:39.243Z,99807.31
2019-03-31T13:39:12.809Z,99809.49
2019-03-31T13:41:47.905Z,99813.53
2019-03-31T13:44:22.558Z,99820.05
2019-03-31T13:46:57.688Z,99825.20
2019-03-31T13:49:32.862Z,99824.64
2019-03-31T13:52:07.967Z,99824.99
2019-03-31T13:54:42.513Z,99824.49
2019-03-31T13:57:16.953Z,99819.30
2019-03-31T13:59:52.642Z,99829.20
2019-03-31T14:02:26.417Z,99829.58
2019-03-31T14:05:01.170Z,99828.13
2019-03-31T14:07:35.362Z,99835.75
2019-03-31T14:10:10.711Z,99832.30
2019-03-31T14:12:45.286Z,99833.41
2019-03-31T14:15:19.898Z,99843.17
2019-03-31T14:17:55.100Z,99839.66
2019-03-31T14:20:30.160Z,99847.26
2019-03-31T14:23:03.863Z,99850.98
2019-03-31T14:25:38.240Z,99842.72
2019-03-31T14:28:13.041Z,99840.16
2019-03-31T14:30:47.143Z,99850.06
2019-03-31T14:33:21.569Z,99845.38
2019-03-31T14:35:55.613Z,99855.52
2019-03-31T14:38:40.094Z,99853.02
2019-03-31T14:41:05.112Z,99857.81
2019-03-31T14:43:39.479Z,99860.98
2019-03-31T14:46:13.185Z,99855.23
2019-03-31T14:48:47.465Z,99848.20
2019-03-31T14:51:21.559Z,99856.23
2019-03-31T14:53:56.637Z,99858.91
2019-03-31T14:56:31.102Z,99856.02
2019-03-31T14:59:06.322Z,99864.47
2019-03-31T15:01:41.077Z,99867.06
2019-03-31T15:04:15.588Z,99869.78
2019-03-31T15:06:48.319Z,99881.49
2019-03-31T15:09:22.031Z,99875.86
2019-03-31T15:11:56.138Z,99885.16
2019-03-31T15:14:30.506Z,99899.24
2019-03-31T15:17:05.010Z,99874.23
2019-03-31T15:19:38.141Z,99885.34
2019-03-31T15:22:11.348Z,99883.50
2019-03-31T15:24:45.186Z,99880.77
2019-03-31T15:27:18.754Z,99884.92
2019-03-31T15:29:52.420Z,99893.66
2019-03-31T15:32:26.805Z,99893.21
2019-03-31T15:34:59.678Z,99891.52
2019-03-31T15:37:33.983Z,99894.30
2019-03-31T15:40:08.178Z,99901.24
2019-03-31T15:42:41.412Z,99898.41
2019-03-31T15:45:15.698Z,99910.25
2019-03-31T15:47:50.560Z,99909.29
2019-03-31T15:50:24.951Z,99910.62
2019-03-31T15:52:59.351Z,99916.78
2019-03-31T15:55:34.460Z,99907.91
2019-03-31T15:58:09.527Z,99912.36
2019-03-31T16:00:44.606Z,99921.74
2019-03-31T16:03:18.974Z,99923.02
2019-03-31T16:05:54.021Z,99922.60
2019-03-31T16:08:28.261Z,99930.94
2019-03-31T16:11:04.651Z,99947.86
2019-03-31T16:13:37.205Z,99943.81
2019-03-31T16:16:14.117Z,99948.62
2019-03-31T16:18:46.139Z,99956.34
2019-03-31T16:21:19.828Z,99956.93
2019-03-31T16:23:53.582Z,99963.50
2019-03-31T16:26:27.351Z,99965.31
2019-03-31T16:29:00.987Z,99974.23
2019-03-31T16:31:34.266Z,99984.05
2019-03-31T16:34:08.379Z,99985.91
2019-03-31T16:36:42.465Z,99991.70
2019-03-31T16:39:16.577Z,99996.28
2019-03-31T16:41:50.592Z,100001.12
2019-03-31T16:44:24.318Z,100005.03
2019-03-31T16:46:58.410Z,100007.13
2019-03-31T16:49:31.641Z,100009.61
2019-03-31T16:52:05.762Z,100012.02
2019-03-31T16:54:39.982Z,100015.30
2019-03-31T16:57:13.652Z,100020.25
2019-03-31T16:59:47.805Z,100021.43
2019-03-31T17:02:21.988Z,100031.33
2019-03-31T17:04:55.616Z,100036.28
2019-03-31T17:07:29.317Z,100042.67
2019-03-31T17:10:04.049Z,100039.70
2019-03-31T17:12:38.159Z,100043.03
2019-03-31T17:15:12.959Z,100048.95
2019-03-31T17:17:46.594Z,100045.19
2019-03-31T17:20:20.188Z,100055.03
2019-03-31T17:22:54.315Z,100060.90
2019-03-31T17:25:28.578Z,100068.06
2019-03-31T17:28:02.281Z,100070.28
2019-03-31T17:30:35.694Z,100073.50
2019-03-31T17:33:08.717Z,100081.25
2019-03-31T17:35:41.554Z,100084.68
2019-03-31T17:38:14.509Z,100091.98
2019-03-31T17:40:46.955Z,100103.58
2019-03-31T17:43:19.718Z,100108.97
2019-03-31T17:45:52.070Z,100116.17
2019-03-31T17:48:25.475Z,100119.30
2019-03-31T17:50:59.503Z,100129.91
2019-03-31T17:53:32.408Z,100127.15
2019-03-31T17:56:04.945Z,100137.42
2019-03-31T17:58:37.903Z,100143.16
2019-03-31T18:01:10.345Z,100143.62
2019-03-31T18:03:44.120Z,100156.95
2019-03-31T18:06:17.082Z,100156.09
2019-03-31T18:08:50.531Z,100156.78
2019-03-31T18:11:22.947Z,100160.84
2019-03-31T18:13:57.083Z,100162.52
2019-03-31T18:16:29.929Z,100163.11
2019-03-31T18:19:03.050Z,100170.58
2019-03-31T18:21:35.510Z,100170.10
2019-03-31T18:24:09.354Z,100174.03
2019-03-31T18:26:41.821Z,100172.61
2019-03-31T18:29:14.342Z,100174.55
2019-03-31T18:31:48.552Z,100176.91
2019-03-31T18:34:21.071Z,100184.92
2019-03-31T18:36:53.496Z,100181.33
2019-03-31T18:39:27.495Z,100192.06
2019-03-31T18:42:00.822Z,100189.81
2019-03-31T18:44:33.214Z,100189.87
2019-03-31T18:47:05.736Z,100194.89
2019-03-31T18:49:38.061Z,100197.08
2019-03-31T18:52:10.113Z,100203.18
2019-03-31T18:55:00.477Z,100208.20
2019-03-31T18:58:15.337Z,100210.05
2019-03-31T19:00:59.850Z,100207.77
2019-03-31T19:04:03.291Z,100213.79
2019-03-31T19:06:44.023Z,100215.69
2019-03-31T19:09:40.414Z,100219.97
2019-03-31T19:12:40.862Z,100223.13
2019-03-31T19:15:25.671Z,100223.46
2019-03-31T19:18:07.295Z,100224.28
2019-03-31T19:21:10.411Z,100226.87
2019-03-31T19:23:49.647Z,100226.50
2019-03-31T19:26:53.023Z,100229.58
2019-03-31T19:29:50.146Z,100236.22
2019-03-31T19:32:50.377Z,100235.82
2019-03-31T19:35:33.489Z,100235.56
2019-03-31T19:38:22.608Z,100244.31
2019-03-31T19:41:16.924Z,100245.03
2019-03-31T19:44:13.076Z,100254.03
2019-03-31T19:47:07.536Z,100256.09
2019-03-31T19:50:05.949Z,100251.13
2019-03-31T19:52:52.615Z,100263.20
2019-03-31T19:55:45.923Z,100259.64
2019-03-31T19:58:40.187Z,100260.25
2019-03-31T20:01:37.906Z,100267.23
2019-03-31T20:04:30.440Z,100266.41
2019-03-31T20:07:30.271Z,100261.82
2019-03-31T20:10:22.251Z,100258.62
2019-03-31T20:13:11.268Z,100260.63
2019-03-31T20:15:57.679Z,100260.22
2019-03-31T20:18:42.636Z,100275.39
2019-03-31T20:21:32.563Z,100269.95
2019-03-31T20:24:15.852Z,100271.72
2019-03-31T20:26:55.374Z,100270.62
2019-03-31T20:29:39.424Z,100272.78
2019-03-31T20:32:30.176Z,100283.34
2019-03-31T20:35:34.350Z,100282.68
2019-03-31T20:38:15.340Z,100280.87
2019-03-31T20:41:16.087Z,100284.11
2019-03-31T20:43:56.630Z,100285.58
2019-03-31T20:46:29.447Z,100291.49
2019-03-31T20:49:02.290Z,100302.25
2019-03-31T20:51:34.681Z,100300.70
2019-03-31T20:54:08.477Z,100307.86
2019-03-31T20:56:42.092Z,100312.03
2019-03-31T20:59:16.284Z,100313.66
2019-03-31T21:01:49.607Z,100312.45
2019-03-31T21:04:23.691Z,100321.30
2019-03-31T21:06:56.509Z,100328.23
2019-03-31T21:09:43.766Z,100323.80
2019-03-31T21:12:05.038Z,100329.54
2019-03-31T21:14:37.471Z,100339.06
2019-03-31T21:17:11.634Z,100344.02
2019-03-31T21:19:45.823Z,100349.83
2019-03-31T21:22:19.524Z,100352.48
2019-03-31T21:24:53.509Z,100357.17
2019-03-31T21:27:27.265Z,100361.30
2019-03-31T21:30:00.895Z,100366.02
2019-03-31T21:32:34.770Z,100373.03
2019-03-31T21:35:08.372Z,100377.77
2019-03-31T21:37:42.081Z,100376.81
2019-03-31T21:40:15.789Z,100376.98
2019-03-31T21:42:49.531Z,100384.80
2019-03-31T21:45:22.983Z,100386.67
2019-03-31T21:47:57.073Z,100389.95
2019-03-31T21:50:31.270Z,100390.88
2019-03-31T21:53:04.359Z,100397.95
2019-03-31T21:55:38.088Z,100405.97
2019-03-31T21:58:11.693Z,100410.04
2019-03-31T22:01:03.212Z,100416.78
2019-03-31T22:03:37.043Z,100415.92
2019-03-31T22:06:11.031Z,100413.15
2019-03-31T22:08:45.243Z,100422.53
2019-03-31T22:11:19.103Z,100425.49
2019-03-31T22:13:52.758Z,100426.20
2019-03-31T22:16:26.736Z,100429.61
2019-03-31T22:19:00.867Z,100427.08
2019-03-31T22:21:34.681Z,100432.85
2019-03-31T22:24:09.287Z,100429.84
2019-03-31T22:26:42.476Z,100423.87
2019-03-31T22:29:16.493Z,100431.69
2019-03-31T22:31:50.055Z,100434.87
2019-03-31T22:34:23.779Z,100435.98
2019-03-31T22:37:15.610Z,100435.95
2019-03-31T22:39:48.922Z,100439.50
2019-03-31T22:42:22.546Z,100437.83
2019-03-31T22:44:55.611Z,100444.67
2019-03-31T22:47:29.623Z,100448.38
2019-03-31T22:50:02.832Z,100452.52
2019-03-31T22:52:36.526Z,100458.37
2019-03-31T22:55:09.878Z,100462.81
2019-03-31T22:57:44.330Z,100466.30
2019-03-31T23:00:21.772Z,100463.39
2019-03-31T23:02:55.090Z,100469.12
2019-03-31T23:05:28.385Z,100468.95
2019-03-31T23:08:02.559Z,100472.91
2019-03-31T23:10:37.159Z,100479.28
2019-03-31T23:13:11.005Z,100476.88
2019-03-31T23:15:45.230Z,100476.03
2019-03-31T23:18:19.216Z,100478.88
2019-03-31T23:20:53.120Z,100480.19
2019-03-31T23:23:26.328Z,100475.92
2019-03-31T23:26:00.202Z,100480.25
2019-03-31T23:28:35.582Z,100485.06
2019-03-31T23:31:09.778Z,100485.25
2019-03-31T23:33:44.003Z,100483.38
2019-03-31T23:36:17.801Z,100477.61
2019-03-31T23:38:51.929Z,100483.70
2019-03-31T23:41:26.116Z,100483.38
2019-03-31T23:43:59.941Z,100484.47
2019-03-31T23:46:34.106Z,100488.80
2019-03-31T23:49:07.637Z,100492.58
2019-03-31T23:51:41.796Z,100493.89
2019-03-31T23:54:15.877Z,100497.87
2019-03-31T23:56:49.546Z,100498.51
2019-03-31T23:59:22.978Z,100502.56
